createdAt,value
2018-11-04T00:00:20.123Z,100602.81
2018-11-04T00:00:56.828Z,100601.19
2018-11-04T00:01:31.255Z,100602.41
2018-11-04T00:02:06.004Z,100605.47
2018-11-04T00:02:40.432Z,100608.63
2018-11-04T00:03:14.919Z,100605.88
2018-11-04T00:03:49.467Z,100602.08
2018-11-04T00:04:24.445Z,100604.59
2018-11-04T00:04:59.152Z,100604.69
2018-11-04T00:05:33.492Z,100599.05
2018-11-04T00:06:08.099Z,100601.67
2018-11-04T00:06:42.488Z,100601.59
2018-11-04T00:07:16.950Z,100601.16
2018-11-04T00:07:52.129Z,100602.75
2018-11-04T00:08:26.676Z,100595.52
2018-11-04T00:09:01.048Z,100588.20
2018-11-04T00:09:35.398Z,100588.95
2018-11-04T00:10:11.240Z,100592.38
2018-11-04T00:10:45.612Z,100599.62
2018-11-04T00:11:19.956Z,100594.89
2018-11-04T00:11:55.113Z,100598.88
2018-11-04T00:12:29.542Z,100595.17
2018-11-04T00:13:04.335Z,100583.28
2018-11-04T00:13:38.971Z,100593.44
2018-11-04T00:14:13.471Z,100595.58
2018-11-04T00:14:47.861Z,100596.80
2018-11-04T00:15:22.176Z,100593.70
2018-11-04T00:15:56.703Z,100599.42
2018-11-04T00:16:31.316Z,100595.14
2018-11-04T00:17:06.477Z,100598.98
2018-11-04T00:17:41.288Z,100589.42
2018-11-04T00:18:15.996Z,100595.81
2018-11-04T00:18:50.374Z,100593.60
2018-11-04T00:19:24.925Z,100586.26
2018-11-04T00:19:59.318Z,100589.69
2018-11-04T00:20:33.668Z,100588.06
2018-11-04T00:21:08.261Z,100583.89
2018-11-04T00:21:42.672Z,100581.20
2018-11-04T00:22:17.103Z,100583.53
2018-11-04T00:22:51.936Z,100579.63
2018-11-04T00:23:26.356Z,100584.23
2018-11-04T00:24:00.699Z,100581.02
2018-11-04T00:24:35.224Z,100585.27
2018-11-04T00:25:12.096Z,100582.28
2018-11-04T00:25:46.585Z,100586.52
2018-11-04T00:26:21.284Z,100582.69
2018-11-04T00:26:55.790Z,100581.43
2018-11-04T00:27:30.264Z,100577.59
2018-11-04T00:28:04.634Z,100577.25
2018-11-04T00:28:39.075Z,100579.02
2018-11-04T00:29:13.436Z,100577.33
2018-11-04T00:29:47.842Z,100574.45
2018-11-04T00:30:22.335Z,100572.34
2018-11-04T00:30:56.839Z,100574.12
2018-11-04T00:31:31.251Z,100575.09
2018-11-04T00:32:05.781Z,100569.66
2018-11-04T00:32:40.637Z,100572.39
2018-11-04T00:33:15.020Z,100570.36
2018-11-04T00:33:49.430Z,100573.83
2018-11-04T00:34:23.798Z,100570.80
2018-11-04T00:34:58.148Z,100568.73
2018-11-04T00:35:32.489Z,100570.20
2018-11-04T00:36:07.084Z,100556.92
2018-11-04T00:36:41.605Z,100562.79
2018-11-04T00:37:16.020Z,100563.53
2018-11-04T00:37:50.629Z,100569.95
2018-11-04T00:38:24.945Z,100563.90
2018-11-04T00:38:59.315Z,100557.48
2018-11-04T00:39:33.687Z,100559.47
2018-11-04T00:40:09.368Z,100563.80
2018-11-04T00:40:43.801Z,100562.50
2018-11-04T00:41:18.136Z,100563.98
2018-11-04T00:41:52.957Z,100558.41
2018-11-04T00:42:27.378Z,100561.50
2018-11-04T00:43:01.914Z,100561.50
2018-11-04T00:43:36.255Z,100562.06
2018-11-04T00:44:10.859Z,100560.02
2018-11-04T00:44:45.263Z,100555.19
2018-11-04T00:45:19.671Z,100556.59
2018-11-04T00:45:54.176Z,100560.50
2018-11-04T00:46:28.533Z,100564.86
2018-11-04T00:47:04.168Z,100562.87
2018-11-04T00:47:39.795Z,100558.41
2018-11-04T00:48:14.192Z,100559.40
2018-11-04T00:48:48.711Z,100564.05
2018-11-04T00:49:23.199Z,100558.03
2018-11-04T00:49:57.555Z,100552.45
2018-11-04T00:50:31.888Z,100555.33
2018-11-04T00:51:06.549Z,100551.94
2018-11-04T00:51:40.964Z,100559.80
2018-11-04T00:52:15.412Z,100554.64
2018-11-04T00:52:49.766Z,100554.53
2018-11-04T00:53:24.070Z,100554.48
2018-11-04T00:53:58.424Z,100555.00
2018-11-04T00:54:32.992Z,100541.79
2018-11-04T00:55:07.933Z,100541.75
2018-11-04T00:55:48.812Z,100546.88
2018-11-04T00:56:23.141Z,100545.11
2018-11-04T00:56:57.510Z,100543.84
2018-11-04T00:57:31.882Z,100543.34
2018-11-04T00:58:06.461Z,100548.33
2018-11-04T00:58:40.868Z,100542.44
2018-11-04T00:59:15.252Z,100538.15
2018-11-04T00:59:49.651Z,100539.84
2018-11-04T01:00:24.141Z,100528.89
2018-11-04T01:00:58.534Z,100539.59
2018-11-04T01:01:32.912Z,100535.68
2018-11-04T01:02:07.468Z,100531.44
2018-11-04T01:02:42.529Z,100534.95
2018-11-04T01:03:17.285Z,100537.86
2018-11-04T01:03:51.661Z,100531.14
2018-11-04T01:04:26.032Z,100535.23
2018-11-04T01:05:00.470Z,100531.40
2018-11-04T01:05:34.844Z,100534.06
2018-11-04T01:06:09.502Z,100533.66
2018-11-04T01:06:43.855Z,100527.70
2018-11-04T01:07:18.559Z,100532.03
2018-11-04T01:07:52.930Z,100530.70
2018-11-04T01:08:27.319Z,100530.06
2018-11-04T01:09:01.779Z,100529.70
2018-11-04T01:09:36.375Z,100522.02
2018-11-04T01:10:12.489Z,100528.05
2018-11-04T01:10:46.896Z,100523.28
2018-11-04T01:11:21.334Z,100523.64
2018-11-04T01:11:55.693Z,100521.91
2018-11-04T01:12:30.246Z,100523.31
2018-11-04T01:13:04.634Z,100522.42
2018-11-04T01:13:39.507Z,100523.72
2018-11-04T01:14:13.893Z,100525.08
2018-11-04T01:14:48.252Z,100519.06
2018-11-04T01:15:22.579Z,100526.19
2018-11-04T01:15:56.931Z,100519.84
2018-11-04T01:16:31.412Z,100517.77
2018-11-04T01:17:06.683Z,100519.72
2018-11-04T01:17:42.215Z,100514.15
2018-11-04T01:18:16.616Z,100521.91
2018-11-04T01:18:50.947Z,100512.16
2018-11-04T01:19:25.297Z,100510.87
2018-11-04T01:19:59.680Z,100502.36
2018-11-04T01:20:34.025Z,100512.94
2018-11-04T01:21:08.993Z,100510.75
2018-11-04T01:21:43.901Z,100514.19
2018-11-04T01:22:18.232Z,100510.31
2018-11-04T01:22:52.585Z,100509.06
2018-11-04T01:23:27.128Z,100503.56
2018-11-04T01:24:04.796Z,100501.50
2018-11-04T01:24:39.473Z,100505.37
2018-11-04T01:25:14.073Z,100493.86
2018-11-04T01:25:48.472Z,100496.02
2018-11-04T01:26:22.800Z,100502.96
2018-11-04T01:26:57.520Z,100495.28
2018-11-04T01:27:32.228Z,100495.69
2018-11-04T01:28:07.099Z,100501.11
2018-11-04T01:28:41.501Z,100494.97
2018-11-04T01:29:15.927Z,100490.92
2018-11-04T01:29:50.429Z,100487.13
2018-11-04T01:30:24.851Z,100493.02
2018-11-04T01:30:59.365Z,100495.65
2018-11-04T01:31:39.916Z,100491.86
2018-11-04T01:32:14.863Z,100494.33
2018-11-04T01:32:49.191Z,100493.48
2018-11-04T01:33:23.584Z,100486.36
2018-11-04T01:33:57.981Z,100487.30
2018-11-04T01:34:32.316Z,100492.23
2018-11-04T01:35:07.116Z,100490.09
2018-11-04T01:35:41.576Z,100490.89
2018-11-04T01:36:16.024Z,100489.72
2018-11-04T01:36:50.737Z,100485.08
2018-11-04T01:37:25.043Z,100481.77
2018-11-04T01:37:59.575Z,100481.92
2018-11-04T01:38:33.897Z,100486.65
2018-11-04T01:39:09.352Z,100475.38
2018-11-04T01:39:43.704Z,100478.13
2018-11-04T01:40:18.058Z,100479.73
2018-11-04T01:40:52.445Z,100479.86
2018-11-04T01:41:27.012Z,100471.57
2018-11-04T01:42:01.426Z,100476.34
2018-11-04T01:42:35.922Z,100476.88
2018-11-04T01:43:10.424Z,100477.16
2018-11-04T01:43:45.025Z,100475.74
2018-11-04T01:44:19.348Z,100474.96
2018-11-04T01:44:53.712Z,100477.92
2018-11-04T01:45:28.024Z,100476.34
2018-11-04T01:46:02.372Z,100473.06
2018-11-04T01:46:36.689Z,100473.71
2018-11-04T01:47:11.137Z,100475.78
2018-11-04T01:47:45.600Z,100473.03
2018-11-04T01:48:19.945Z,100470.93
2018-11-04T01:48:54.268Z,100462.88
2018-11-04T01:49:28.636Z,100470.03
2018-11-04T01:50:03.043Z,100468.59
2018-11-04T01:50:37.424Z,100471.33
2018-11-04T01:51:12.060Z,100462.81
2018-11-04T01:51:46.433Z,100472.31
2018-11-04T01:52:20.768Z,100471.13
2018-11-04T01:52:55.067Z,100465.35
2018-11-04T01:53:29.468Z,100457.19
2018-11-04T01:54:03.867Z,100463.74
2018-11-04T01:54:38.400Z,100463.41
2018-11-04T01:55:13.399Z,100461.76
2018-11-04T01:55:47.813Z,100454.72
2018-11-04T01:56:22.148Z,100454.80
2018-11-04T01:56:56.452Z,100451.33
2018-11-04T01:57:30.937Z,100447.48
2018-11-04T01:58:06.169Z,100444.66
2018-11-04T01:58:40.549Z,100451.52
2018-11-04T01:59:14.922Z,100450.22
2018-11-04T01:59:49.305Z,100445.91
2018-11-04T02:00:23.680Z,100450.58
2018-11-04T02:00:58.011Z,100449.12
2018-11-04T02:01:32.326Z,100444.60
2018-11-04T02:02:06.706Z,100441.83
2018-11-04T02:02:41.605Z,100444.86
2018-11-04T02:03:16.005Z,100439.48
2018-11-04T02:03:50.684Z,100447.08
2018-11-04T02:04:25.029Z,100435.22
2018-11-04T02:04:59.368Z,100438.38
2018-11-04T02:05:33.720Z,100439.08
2018-11-04T02:06:08.070Z,100432.30
2018-11-04T02:06:42.503Z,100439.08
2018-11-04T02:07:16.976Z,100432.56
2018-11-04T02:07:51.304Z,100435.51
2018-11-04T02:08:25.616Z,100431.41
2018-11-04T02:08:59.963Z,100428.12
2018-11-04T02:09:34.310Z,100425.36
2018-11-04T02:10:10.933Z,100427.05
2018-11-04T02:10:45.365Z,100406.34
2018-11-04T02:11:19.721Z,100426.23
2018-11-04T02:11:54.059Z,100426.45
2018-11-04T02:12:28.612Z,100425.79
2018-11-04T02:13:02.976Z,100428.91
2018-11-04T02:13:37.384Z,100419.98
2018-11-04T02:14:11.798Z,100430.02
2018-11-04T02:14:46.236Z,100418.95
2018-11-04T02:15:20.597Z,100424.98
2018-11-04T02:15:54.908Z,100415.70
2018-11-04T02:16:29.259Z,100417.98
2018-11-04T02:17:03.629Z,100426.69
2018-11-04T02:17:38.223Z,100418.64
2018-11-04T02:18:12.715Z,100419.19
2018-11-04T02:18:47.083Z,100417.05
2018-11-04T02:19:21.377Z,100419.46
2018-11-04T02:19:55.752Z,100416.66
2018-11-04T02:20:30.169Z,100407.38
2018-11-04T02:21:04.500Z,100410.27
2018-11-04T02:21:38.969Z,100402.33
2018-11-04T02:22:13.378Z,100398.48
2018-11-04T02:22:47.809Z,100408.60
2018-11-04T02:23:22.116Z,100403.97
2018-11-04T02:23:56.427Z,100405.57
2018-11-04T02:24:31.238Z,100396.04
2018-11-04T02:25:06.572Z,100396.75
2018-11-04T02:25:40.978Z,100392.20
2018-11-04T02:26:15.556Z,100401.44
2018-11-04T02:26:50.026Z,100399.08
2018-11-04T02:27:24.344Z,100400.09
2018-11-04T02:27:58.687Z,100398.18
2018-11-04T02:28:33.145Z,100394.53
2018-11-04T02:29:07.491Z,100398.27
2018-11-04T02:29:42.035Z,100393.98
2018-11-04T02:30:17.386Z,100396.98
2018-11-04T02:30:51.835Z,100393.50
2018-11-04T02:31:26.380Z,100393.55
2018-11-04T02:32:00.700Z,100398.18
2018-11-04T02:32:35.042Z,100396.70
2018-11-04T02:33:09.426Z,100398.35
2018-11-04T02:33:43.920Z,100392.56
2018-11-04T02:34:18.291Z,100396.67
2018-11-04T02:34:52.884Z,100395.28
2018-11-04T02:35:27.242Z,100391.80
2018-11-04T02:36:01.592Z,100395.60
2018-11-04T02:36:35.946Z,100393.94
2018-11-04T02:37:10.420Z,100395.33
2018-11-04T02:37:45.019Z,100386.99
2018-11-04T02:38:19.396Z,100389.26
2018-11-04T02:38:53.761Z,100385.02
2018-11-04T02:39:28.077Z,100392.39
2018-11-04T02:40:02.432Z,100393.50
2018-11-04T02:40:37.448Z,100389.22
2018-11-04T02:41:11.942Z,100390.28
2018-11-04T02:41:46.430Z,100387.48
2018-11-04T02:42:20.877Z,100391.89
2018-11-04T02:42:55.244Z,100385.64
2018-11-04T02:43:29.599Z,100392.52
2018-11-04T02:44:03.982Z,100388.77
2018-11-04T02:44:38.380Z,100384.57
2018-11-04T02:45:13.020Z,100386.05
2018-11-04T02:45:47.445Z,100387.61
2018-11-04T02:46:21.785Z,100388.23
2018-11-04T02:46:56.162Z,100393.85
2018-11-04T02:47:30.685Z,100390.25
2018-11-04T02:48:05.181Z,100383.91
2018-11-04T02:48:39.600Z,100387.07
2018-11-04T02:49:14.051Z,100381.05
2018-11-04T02:49:48.387Z,100387.56
2018-11-04T02:50:22.738Z,100384.93
2018-11-04T02:50:57.125Z,100379.13
2018-11-04T02:51:32.083Z,100379.58
2018-11-04T02:52:06.585Z,100386.75
2018-11-04T02:52:41.285Z,100381.95
2018-11-04T02:53:15.744Z,100380.51
2018-11-04T02:53:50.062Z,100377.69
2018-11-04T02:54:24.370Z,100382.52
2018-11-04T02:54:58.720Z,100382.39
2018-11-04T02:55:33.234Z,100379.70
2018-11-04T02:56:07.994Z,100379.88
2018-11-04T02:56:42.484Z,100384.71
2018-11-04T02:57:16.945Z,100379.36
2018-11-04T02:57:51.413Z,100380.34
2018-11-04T02:58:25.779Z,100376.73
2018-11-04T02:59:00.178Z,100377.39
2018-11-04T02:59:34.536Z,100377.03
2018-11-04T03:00:11.276Z,100381.86
2018-11-04T03:00:45.669Z,100373.33
2018-11-04T03:01:19.989Z,100379.31
2018-11-04T03:01:54.381Z,100376.50
2018-11-04T03:02:28.873Z,100385.47
2018-11-04T03:03:03.285Z,100388.23
2018-11-04T03:03:37.721Z,100383.78
2018-11-04T03:04:12.236Z,100383.55
2018-11-04T03:04:46.660Z,100385.52
2018-11-04T03:05:21.004Z,100382.16
2018-11-04T03:05:55.364Z,100379.77
2018-11-04T03:06:29.706Z,100380.56
2018-11-04T03:07:04.158Z,100380.88
2018-11-04T03:07:38.754Z,100387.79
2018-11-04T03:08:13.109Z,100372.98
2018-11-04T03:08:47.576Z,100385.28
2018-11-04T03:09:22.053Z,100377.79
2018-11-04T03:09:56.391Z,100379.38
2018-11-04T03:10:30.761Z,100380.16
2018-11-04T03:11:05.507Z,100380.43
2018-11-04T03:11:40.118Z,100375.92
2018-11-04T03:12:14.478Z,100375.25
2018-11-04T03:12:49.000Z,100380.88
2018-11-04T03:13:23.391Z,100374.32
2018-11-04T03:13:57.789Z,100376.86
2018-11-04T03:14:32.672Z,100365.80
2018-11-04T03:15:07.656Z,100370.56
2018-11-04T03:15:42.191Z,100373.65
2018-11-04T03:16:16.568Z,100375.57
2018-11-04T03:16:51.002Z,100373.73
2018-11-04T03:17:25.705Z,100369.09
2018-11-04T03:18:00.099Z,100369.80
2018-11-04T03:18:34.464Z,100374.58
2018-11-04T03:19:09.191Z,100369.90
2018-11-04T03:19:43.668Z,100375.66
2018-11-04T03:20:18.065Z,100366.59
2018-11-04T03:20:52.549Z,100365.52
2018-11-04T03:21:27.048Z,100361.91
2018-11-04T03:22:01.469Z,100367.48
2018-11-04T03:22:35.897Z,100368.56
2018-11-04T03:23:10.559Z,100364.28
2018-11-04T03:23:45.032Z,100369.09
2018-11-04T03:24:19.404Z,100360.80
2018-11-04T03:24:53.807Z,100367.27
2018-11-04T03:25:28.148Z,100362.89
2018-11-04T03:26:03.130Z,100360.52
2018-11-04T03:26:37.599Z,100363.55
2018-11-04T03:27:12.042Z,100366.37
2018-11-04T03:27:46.608Z,100369.18
2018-11-04T03:28:21.381Z,100365.20
2018-11-04T03:28:55.940Z,100362.43
2018-11-04T03:29:30.320Z,100361.09
2018-11-04T03:30:05.274Z,100369.70
2018-11-04T03:30:40.107Z,100366.42
2018-11-04T03:31:14.501Z,100366.10
2018-11-04T03:31:49.019Z,100369.53
2018-11-04T03:32:23.351Z,100366.23
2018-11-04T03:32:57.699Z,100365.08
2018-11-04T03:33:32.034Z,100365.20
2018-11-04T03:34:06.396Z,100368.95
2018-11-04T03:34:41.001Z,100368.61
2018-11-04T03:35:15.401Z,100368.20
2018-11-04T03:35:49.784Z,100361.52
2018-11-04T03:36:24.200Z,100362.89
2018-11-04T03:36:58.540Z,100367.31
2018-11-04T03:37:32.987Z,100366.64
2018-11-04T03:38:07.973Z,100367.44
2018-11-04T03:38:42.435Z,100361.91
2018-11-04T03:39:17.400Z,100362.98
2018-11-04T03:39:51.775Z,100363.96
2018-11-04T03:40:26.117Z,100361.07
2018-11-04T03:41:00.483Z,100363.16
2018-11-04T03:41:34.814Z,100362.61
2018-11-04T03:42:09.619Z,100352.70
2018-11-04T03:42:44.729Z,100360.39
2018-11-04T03:43:25.481Z,100360.58
2018-11-04T03:43:59.840Z,100358.51
2018-11-04T03:44:34.224Z,100360.52
2018-11-04T03:45:09.369Z,100363.21
2018-11-04T03:45:43.895Z,100359.37
2018-11-04T03:46:18.278Z,100359.58
2018-11-04T03:46:52.668Z,100348.97
2018-11-04T03:47:27.371Z,100353.11
2018-11-04T03:48:02.147Z,100353.66
2018-11-04T03:48:36.652Z,100355.00
2018-11-04T03:49:11.036Z,100359.33
2018-11-04T03:49:45.459Z,100358.87
2018-11-04T03:50:19.819Z,100360.20
2018-11-04T03:50:54.217Z,100356.77
2018-11-04T03:51:28.794Z,100345.56
2018-11-04T03:52:03.415Z,100348.77
2018-11-04T03:52:37.949Z,100346.30
2018-11-04T03:53:12.626Z,100350.52
2018-11-04T03:53:47.365Z,100350.17
2018-11-04T03:54:21.715Z,100343.94
2018-11-04T03:54:56.056Z,100343.54
2018-11-04T03:55:30.405Z,100345.68
2018-11-04T03:56:05.453Z,100347.14
2018-11-04T03:56:40.050Z,100344.54
2018-11-04T03:57:14.521Z,100346.02
2018-11-04T03:57:49.069Z,100344.51
2018-11-04T03:58:23.419Z,100341.86
2018-11-04T03:58:57.929Z,100349.57
2018-11-04T03:59:32.283Z,100341.73
2018-11-04T04:00:09.915Z,100339.69
2018-11-04T04:00:44.464Z,100338.80
2018-11-04T04:01:18.853Z,100345.39
2018-11-04T04:01:53.309Z,100342.75
2018-11-04T04:02:27.659Z,100342.53
2018-11-04T04:03:02.052Z,100342.23
2018-11-04T04:03:36.414Z,100340.54
2018-11-04T04:04:10.891Z,100342.67
2018-11-04T04:04:45.327Z,100336.61
2018-11-04T04:05:19.694Z,100339.25
2018-11-04T04:05:54.126Z,100335.64
2018-11-04T04:06:28.466Z,100338.23
2018-11-04T04:07:03.111Z,100339.92
2018-11-04T04:07:37.568Z,100336.29
2018-11-04T04:08:11.992Z,100339.83
2018-11-04T04:08:46.417Z,100335.89
2018-11-04T04:09:20.764Z,100341.45
2018-11-04T04:09:55.140Z,100335.31
2018-11-04T04:10:29.497Z,100341.34
2018-11-04T04:11:03.904Z,100342.56
2018-11-04T04:11:38.355Z,100339.88
2018-11-04T04:12:12.824Z,100340.99
2018-11-04T04:12:47.544Z,100337.75
2018-11-04T04:13:22.044Z,100328.45
2018-11-04T04:13:56.420Z,100340.51
2018-11-04T04:14:30.757Z,100332.13
2018-11-04T04:15:06.288Z,100337.50
2018-11-04T04:15:40.673Z,100334.47
2018-11-04T04:16:15.163Z,100334.07
2018-11-04T04:16:49.494Z,100328.67
2018-11-04T04:17:23.852Z,100329.70
2018-11-04T04:17:58.249Z,100332.45
2018-11-04T04:18:32.756Z,100337.73
2018-11-04T04:19:07.197Z,100330.88
2018-11-04T04:19:41.713Z,100334.63
2018-11-04T04:20:16.119Z,100329.73
2018-11-04T04:20:54.653Z,100331.56
2018-11-04T04:21:29.053Z,100330.09
2018-11-04T04:22:03.849Z,100328.74
2018-11-04T04:22:38.253Z,100333.06
2018-11-04T04:23:12.670Z,100335.20
2018-11-04T04:23:47.072Z,100328.11
2018-11-04T04:24:21.431Z,100332.00
2018-11-04T04:24:55.773Z,100331.28
2018-11-04T04:25:30.124Z,100330.27
2018-11-04T04:26:04.529Z,100332.06
2018-11-04T04:26:38.908Z,100323.40
2018-11-04T04:27:13.780Z,100331.11
2018-11-04T04:27:48.200Z,100329.86
2018-11-04T04:28:22.745Z,100329.81
2018-11-04T04:28:57.092Z,100330.53
2018-11-04T04:29:31.438Z,100325.70
2018-11-04T04:30:08.287Z,100322.95
2018-11-04T04:30:42.648Z,100331.26
2018-11-04T04:31:17.085Z,100330.70
2018-11-04T04:31:51.464Z,100330.88
2018-11-04T04:32:25.836Z,100327.22
2018-11-04T04:33:00.139Z,100330.08
2018-11-04T04:33:34.500Z,100330.63
2018-11-04T04:34:08.908Z,100330.75
2018-11-04T04:34:43.272Z,100327.03
2018-11-04T04:35:17.900Z,100324.98
2018-11-04T04:35:52.277Z,100325.98
2018-11-04T04:36:26.630Z,100327.12
2018-11-04T04:37:00.984Z,100327.83
2018-11-04T04:37:35.338Z,100332.30
2018-11-04T04:38:10.124Z,100334.03
2018-11-04T04:38:44.676Z,100328.74
2018-11-04T04:39:19.144Z,100334.77
2018-11-04T04:39:53.530Z,100329.26
2018-11-04T04:40:27.875Z,100330.60
2018-11-04T04:41:02.248Z,100326.30
2018-11-04T04:41:36.694Z,100328.33
2018-11-04T04:42:11.091Z,100321.27
2018-11-04T04:42:45.467Z,100317.20
2018-11-04T04:43:19.803Z,100317.98
2018-11-04T04:43:54.145Z,100324.91
2018-11-04T04:44:28.478Z,100320.65
2018-11-04T04:45:02.817Z,100319.97
2018-11-04T04:45:37.215Z,100320.93
2018-11-04T04:46:11.704Z,100320.08
2018-11-04T04:46:46.067Z,100317.83
2018-11-04T04:47:20.423Z,100318.23
2018-11-04T04:47:54.917Z,100316.88
2018-11-04T04:48:29.266Z,100310.73
2018-11-04T04:49:03.619Z,100318.27
2018-11-04T04:49:38.048Z,100315.52
2018-11-04T04:50:12.619Z,100307.97
2018-11-04T04:50:47.224Z,100320.41
2018-11-04T04:51:21.388Z,100316.13
2018-11-04T04:51:55.774Z,100316.25
2018-11-04T04:52:30.128Z,100318.94
2018-11-04T04:53:05.570Z,100316.68
2018-11-04T04:53:40.084Z,100320.70
2018-11-04T04:54:14.524Z,100320.67
2018-11-04T04:54:48.875Z,100319.62
2018-11-04T04:55:23.240Z,100317.05
2018-11-04T04:55:58.105Z,100317.99
2018-11-04T04:56:32.480Z,100324.06
2018-11-04T04:57:06.872Z,100322.16
2018-11-04T04:57:41.375Z,100321.69
2018-11-04T04:58:15.771Z,100325.66
2018-11-04T04:58:50.146Z,100321.53
2018-11-04T04:59:24.636Z,100313.00
2018-11-04T04:59:59.076Z,100321.66
2018-11-04T05:00:33.606Z,100321.87
2018-11-04T05:01:08.024Z,100322.55
2018-11-04T05:01:42.530Z,100319.13
2018-11-04T05:02:16.884Z,100316.19
2018-11-04T05:02:51.245Z,100321.38
2018-11-04T05:03:25.571Z,100317.08
2018-11-04T05:03:59.931Z,100318.34
2018-11-04T05:04:34.281Z,100311.17
2018-11-04T05:05:08.662Z,100310.28
2018-11-04T05:05:43.052Z,100308.36
2018-11-04T05:06:17.399Z,100308.07
2018-11-04T05:06:51.775Z,100312.70
2018-11-04T05:07:26.112Z,100311.22
2018-11-04T05:08:00.449Z,100306.41
2018-11-04T05:08:34.771Z,100306.06
2018-11-04T05:09:09.369Z,100307.01
2018-11-04T05:09:43.614Z,100310.17
2018-11-04T05:10:17.975Z,100311.50
2018-11-04T05:10:52.345Z,100305.61
2018-11-04T05:11:26.695Z,100308.55
2018-11-04T05:12:01.084Z,100307.01
2018-11-04T05:12:35.420Z,100308.37
2018-11-04T05:13:10.177Z,100310.16
2018-11-04T05:13:44.624Z,100310.84
2018-11-04T05:14:19.034Z,100309.00
2018-11-04T05:14:53.516Z,100311.91
2018-11-04T05:15:27.842Z,100306.28
2018-11-04T05:16:02.180Z,100308.37
2018-11-04T05:16:36.795Z,100311.35
2018-11-04T05:17:11.341Z,100303.84
2018-11-04T05:17:45.775Z,100305.14
2018-11-04T05:18:20.118Z,100304.88
2018-11-04T05:18:54.440Z,100302.53
2018-11-04T05:19:28.909Z,100303.56
2018-11-04T05:20:03.299Z,100301.37
2018-11-04T05:20:37.742Z,100304.59
2018-11-04T05:21:12.160Z,100303.75
2018-11-04T05:21:46.843Z,100310.16
2018-11-04T05:22:21.163Z,100308.63
2018-11-04T05:22:55.529Z,100302.84
2018-11-04T05:23:29.863Z,100310.30
2018-11-04T05:24:04.683Z,100304.27
2018-11-04T05:24:39.089Z,100302.34
2018-11-04T05:25:13.627Z,100299.25
2018-11-04T05:25:47.973Z,100298.52
2018-11-04T05:26:22.371Z,100297.35
2018-11-04T05:26:56.713Z,100301.39
2018-11-04T05:27:31.068Z,100295.31
2018-11-04T05:28:05.863Z,100301.17
2018-11-04T05:28:40.256Z,100300.83
2018-11-04T05:29:14.624Z,100300.78
2018-11-04T05:29:49.155Z,100301.45
2018-11-04T05:30:23.536Z,100303.51
2018-11-04T05:30:57.934Z,100297.83
2018-11-04T05:31:32.244Z,100302.95
2018-11-04T05:32:06.948Z,100302.16
2018-11-04T05:32:41.297Z,100306.46
2018-11-04T05:33:15.675Z,100302.36
2018-11-04T05:33:50.016Z,100299.38
2018-11-04T05:34:24.919Z,100302.86
2018-11-04T05:34:59.231Z,100296.62
2018-11-04T05:35:33.572Z,100297.91
2018-11-04T05:36:07.971Z,100294.37
2018-11-04T05:36:42.396Z,100300.04
2018-11-04T05:37:16.858Z,100297.69
2018-11-04T05:37:51.187Z,100293.06
2018-11-04T05:38:25.636Z,100294.36
2018-11-04T05:39:00.747Z,100297.64
2018-11-04T05:39:35.679Z,100299.20
2018-11-04T05:40:11.043Z,100296.32
2018-11-04T05:40:45.552Z,100296.53
2018-11-04T05:41:19.888Z,100284.67
2018-11-04T05:41:54.816Z,100289.90
2018-11-04T05:42:29.145Z,100299.25
2018-11-04T05:43:03.576Z,100297.05
2018-11-04T05:43:38.127Z,100292.54
2018-11-04T05:44:12.844Z,100294.52
2018-11-04T05:44:47.286Z,100292.27
2018-11-04T05:45:21.646Z,100293.28
2018-11-04T05:45:55.976Z,100297.45
2018-11-04T05:46:30.282Z,100296.16
2018-11-04T05:47:04.652Z,100293.80
2018-11-04T05:47:39.224Z,100295.66
2018-11-04T05:48:13.692Z,100292.89
2018-11-04T05:48:48.592Z,100293.49
2018-11-04T05:49:22.996Z,100297.38
2018-11-04T05:49:57.880Z,100297.45
2018-11-04T05:50:32.323Z,100294.23
2018-11-04T05:51:06.727Z,100297.61
2018-11-04T05:51:41.213Z,100293.30
2018-11-04T05:52:15.749Z,100286.09
2018-11-04T05:52:50.104Z,100295.38
2018-11-04T05:53:24.425Z,100289.64
2018-11-04T05:53:58.735Z,100295.22
2018-11-04T05:54:33.254Z,100292.73
2018-11-04T05:55:09.008Z,100297.50
2018-11-04T05:55:43.401Z,100293.97
2018-11-04T05:56:17.767Z,100295.61
2018-11-04T05:56:52.128Z,100295.78
2018-11-04T05:57:26.494Z,100294.47
2018-11-04T05:58:00.826Z,100293.92
2018-11-04T05:58:35.152Z,100297.39
2018-11-04T05:59:09.605Z,100293.29
2018-11-04T05:59:44.049Z,100291.90
2018-11-04T06:00:18.428Z,100292.96
2018-11-04T06:00:52.951Z,100293.01
2018-11-04T06:01:27.376Z,100295.38
2018-11-04T06:02:01.735Z,100298.47
2018-11-04T06:02:36.094Z,100298.96
2018-11-04T06:03:10.531Z,100301.60
2018-11-04T06:03:44.996Z,100295.71
2018-11-04T06:04:19.311Z,100295.31
2018-11-04T06:04:53.665Z,100295.81
2018-11-04T06:05:27.987Z,100292.06
2018-11-04T06:06:02.366Z,100294.53
2018-11-04T06:06:36.726Z,100293.79
2018-11-04T06:07:11.208Z,100286.77
2018-11-04T06:07:45.556Z,100298.14
2018-11-04T06:08:19.900Z,100301.07
2018-11-04T06:08:54.243Z,100298.80
2018-11-04T06:09:28.572Z,100298.17
2018-11-04T06:10:03.109Z,100295.19
2018-11-04T06:10:37.469Z,100290.75
2018-11-04T06:11:11.849Z,100297.11
2018-11-04T06:11:46.792Z,100300.72
2018-11-04T06:12:21.161Z,100296.28
2018-11-04T06:12:55.500Z,100298.65
2018-11-04T06:13:30.211Z,100297.55
2018-11-04T06:14:04.587Z,100306.05
2018-11-04T06:14:39.030Z,100297.13
2018-11-04T06:15:13.412Z,100299.50
2018-11-04T06:15:47.803Z,100303.98
2018-11-04T06:16:22.328Z,100303.69
2018-11-04T06:16:56.706Z,100308.16
2018-11-04T06:17:31.090Z,100305.67
2018-11-04T06:18:05.866Z,100304.19
2018-11-04T06:18:40.678Z,100304.77
2018-11-04T06:19:15.316Z,100301.07
2018-11-04T06:19:50.008Z,100305.45
2018-11-04T06:20:24.530Z,100293.69
2018-11-04T06:20:59.193Z,100303.41
2018-11-04T06:21:33.543Z,100302.47
2018-11-04T06:22:07.932Z,100304.64
2018-11-04T06:22:43.554Z,100294.73
2018-11-04T06:23:17.958Z,100299.14
2018-11-04T06:23:52.457Z,100303.81
2018-11-04T06:24:27.385Z,100292.80
2018-11-04T06:25:01.831Z,100296.73
2018-11-04T06:25:36.202Z,100294.69
2018-11-04T06:26:10.887Z,100296.44
2018-11-04T06:26:45.282Z,100299.03
2018-11-04T06:27:20.450Z,100302.17
2018-11-04T06:27:55.391Z,100297.95
2018-11-04T06:28:29.972Z,100304.16
2018-11-04T06:29:04.788Z,100299.21
2018-11-04T06:29:39.297Z,100302.23
2018-11-04T06:30:14.180Z,100304.72
2018-11-04T06:30:48.531Z,100301.39
2018-11-04T06:31:22.922Z,100304.47
2018-11-04T06:31:57.246Z,100299.30
2018-11-04T06:32:31.603Z,100305.22
2018-11-04T06:33:06.132Z,100302.96
2018-11-04T06:33:41.812Z,100306.80
2018-11-04T06:34:16.415Z,100306.46